Terminal Aerodrome Forecast
Issued by NWS

Home | Current Version | Previous Version | Text Only | Print | Product List | Glossary On
Versions: 1 2 3 4 5 6 7 8 9 10 11 12 13 14 15 16 17
245
FTUS41 KBGM 110526
TAFITH
TAF
KITH 110526Z 1106/1206 29010KT P6SM -SHSN SCT018 OVC035
     FM110900 29010G18KT P6SM -SHSN SCT015 BKN025
     FM111300 30016G24KT 4SM -SHSN BKN025
     FM111800 31015G25KT P6SM -SHSN BKN035
     FM120000 29011KT P6SM -SHSN BKN050=

USA.gov is the U.S. government's official web portal to all federal, state and local government web resources and services.